Time;durP1;ratioP1;P1;durP2;ratioP2;P2;SDS_P1;SDS_P2;PMS_P1;PMS_P2;Temp;Humidity;BMP_temperature;BMP_pressure;BME280_temperature;BME280_humidity;BME280_pressure;Samples;Min_cycle;Max_cycle;Signal;HPM_P1;HPM_P2
2021/05/29 00:00:51;;;;;;;2.80;1.92;;;11.00;99.90;;;;;;5063442;28;20212;-74
2021/05/29 00:03:17;;;;;;;4.75;2.55;;;11.00;99.90;;;;;;5047620;28;20205;-74
2021/05/29 00:05:45;;;;;;;2.40;2.20;;;11.00;99.90;;;;;;5058520;28;20225;-74
2021/05/29 00:08:13;;;;;;;2.60;2.40;;;11.00;99.90;;;;;;5069309;28;21027;-74
2021/05/29 00:10:42;;;;;;;3.30;2.35;;;11.00;99.90;;;;;;5072572;28;20276;-74
2021/05/29 00:13:08;;;;;;;2.83;2.47;;;11.00;99.90;;;;;;5054027;28;20205;-73
2021/05/29 00:15:35;;;;;;;2.90;2.45;;;11.00;99.90;;;;;;5051232;28;20239;-74
2021/05/29 00:18:01;;;;;;;2.20;1.88;;;10.90;99.90;;;;;;5064504;28;20200;-73
2021/05/29 00:20:28;;;;;;;2.85;2.50;;;10.90;99.90;;;;;;5062365;28;20669;-74
2021/05/29 00:22:55;;;;;;;2.63;2.42;;;10.90;99.90;;;;;;5049487;28;20581;-74
2021/05/29 00:25:22;;;;;;;3.15;2.50;;;10.90;99.90;;;;;;5050017;28;20274;-74
2021/05/29 00:27:48;;;;;;;2.45;2.25;;;10.90;99.90;;;;;;5061241;28;20204;-74
2021/05/29 00:30:15;;;;;;;2.83;2.30;;;10.90;99.90;;;;;;5067160;28;20224;-74
2021/05/29 00:32:42;;;;;;;2.60;2.10;;;10.90;99.90;;;;;;5055044;28;20205;-74
2021/05/29 00:35:09;;;;;;;2.90;2.50;;;11.00;99.90;;;;;;5069298;28;20234;-73
2021/05/29 00:37:37;;;;;;;3.17;2.58;;;11.00;99.90;;;;;;5071559;28;20205;-73
2021/05/29 00:40:07;;;;;;;2.50;2.30;;;11.00;99.90;;;;;;5068471;28;20680;-74
2021/05/29 00:42:33;;;;;;;2.97;2.45;;;10.90;99.90;;;;;;5058695;28;20287;-74
2021/05/29 00:45:00;;;;;;;2.85;2.10;;;10.90;99.90;;;;;;5071932;28;20204;-74
2021/05/29 00:47:29;;;;;;;3.17;2.40;;;10.90;99.90;;;;;;5071602;28;20224;-74
2021/05/29 00:49:58;;;;;;;2.40;2.20;;;10.90;99.90;;;;;;5071700;28;20224;-74
2021/05/29 00:52:25;;;;;;;3.03;2.50;;;10.80;99.90;;;;;;5063949;28;20200;-73
2021/05/29 00:54:54;;;;;;;2.58;2.38;;;10.80;99.90;;;;;;5053780;28;20279;-74
2021/05/29 00:57:22;;;;;;;2.90;2.60;;;10.80;99.90;;;;;;5066219;28;20394;-74
2021/05/29 00:59:49;;;;;;;2.60;2.40;;;10.80;99.90;;;;;;5069182;28;20193;-74
2021/05/29 01:02:16;;;;;;;3.15;2.85;;;10.80;99.90;;;;;;5068561;28;20211;-73
2021/05/29 01:04:44;;;;;;;2.42;2.22;;;10.70;99.90;;;;;;5069392;28;20199;-74
2021/05/29 01:07:14;;;;;;;3.85;2.42;;;10.70;99.90;;;;;;5068995;28;20310;-73
2021/05/29 01:09:42;;;;;;;2.72;2.53;;;10.70;99.90;;;;;;5069401;28;20228;-74
2021/05/29 01:12:11;;;;;;;2.90;2.70;;;10.70;99.90;;;;;;5060704;28;20205;-74
2021/05/29 01:14:46;;;;;;;2.75;2.42;;;10.70;99.90;;;;;;5052383;28;20207;-75
2021/05/29 01:17:12;;;;;;;3.03;2.70;;;10.70;99.90;;;;;;5051475;28;20228;-75
2021/05/29 01:19:39;;;;;;;2.80;2.60;;;10.70;99.90;;;;;;5050943;28;20197;-75
2021/05/29 01:22:07;;;;;;;4.68;2.42;;;10.70;99.90;;;;;;5066355;28;20212;-75
2021/05/29 01:24:34;;;;;;;2.60;2.40;;;10.70;99.90;;;;;;5072175;28;20690;-75
2021/05/29 01:27:00;;;;;;;2.50;2.30;;;10.70;99.90;;;;;;5072353;28;20224;-75
2021/05/29 01:29:28;;;;;;;2.75;2.53;;;10.70;99.90;;;;;;5062065;28;20243;-75
2021/05/29 01:32:01;;;;;;;2.70;2.50;;;10.70;99.90;;;;;;5051573;28;20233;-75
2021/05/29 01:34:30;;;;;;;3.03;2.40;;;10.60;99.90;;;;;;5063502;28;20297;-74
2021/05/29 01:36:57;;;;;;;2.95;2.58;;;10.70;99.90;;;;;;5072821;28;20224;-74
2021/05/29 01:39:24;;;;;;;4.63;2.35;;;10.60;99.90;;;;;;5067942;28;20193;-75
2021/05/29 01:41:52;;;;;;;3.15;2.65;;;10.60;99.90;;;;;;5050502;28;20209;-75
2021/05/29 01:44:19;;;;;;;2.88;2.63;;;10.60;99.90;;;;;;5051640;28;20205;-74
2021/05/29 01:46:45;;;;;;;2.63;2.42;;;10.50;99.90;;;;;;5066652;28;20274;-74
2021/05/29 01:49:11;;;;;;;3.70;2.65;;;10.60;99.90;;;;;;5066094;28;20232;-75
2021/05/29 01:51:37;;;;;;;3.20;2.60;;;10.60;99.90;;;;;;5050195;28;20259;-75
2021/05/29 01:54:04;;;;;;;2.85;2.50;;;10.50;99.90;;;;;;5051607;28;20208;-76
2021/05/29 01:56:31;;;;;;;2.60;2.40;;;10.50;99.90;;;;;;5051597;28;20772;-75
2021/05/29 01:58:57;;;;;;;3.05;2.65;;;10.50;99.90;;;;;;5051529;28;20200;-75
2021/05/29 02:01:24;;;;;;;3.05;2.50;;;10.50;99.90;;;;;;5061884;28;20637;-75
2021/05/29 02:03:50;;;;;;;3.65;2.78;;;10.40;99.90;;;;;;5071472;28;20219;-75
2021/05/29 02:06:16;;;;;;;3.70;2.63;;;10.40;99.90;;;;;;5050834;28;20648;-76
2021/05/29 02:08:43;;;;;;;3.70;3.00;;;10.40;99.90;;;;;;5062942;28;20220;-75
2021/05/29 02:11:09;;;;;;;4.72;2.95;;;10.40;99.90;;;;;;5070140;28;20211;-76
2021/05/29 02:13:38;;;;;;;3.53;2.90;;;10.40;99.90;;;;;;5071422;28;20200;-75
2021/05/29 02:16:06;;;;;;;4.05;3.25;;;10.40;99.90;;;;;;5071721;28;20239;-75
2021/05/29 02:18:33;;;;;;;3.05;2.58;;;10.40;99.90;;;;;;5071262;28;20207;-75
2021/05/29 02:21:02;;;;;;;2.90;2.70;;;10.40;99.90;;;;;;5067555;28;20209;-75
2021/05/29 02:23:30;;;;;;;3.67;2.40;;;10.40;99.90;;;;;;5049964;28;20606;-75
2021/05/29 02:26:01;;;;;;;2.80;2.60;;;10.30;99.90;;;;;;5051034;28;20644;-75
2021/05/29 02:28:28;;;;;;;3.40;3.10;;;10.40;99.90;;;;;;5050549;28;20300;-75
2021/05/29 02:30:55;;;;;;;2.97;2.70;;;10.30;99.90;;;;;;5055312;28;20578;-75
2021/05/29 02:33:22;;;;;;;2.80;2.20;;;10.30;99.90;;;;;;5069609;28;20215;-75
2021/05/29 02:35:49;;;;;;;2.92;2.40;;;10.30;99.90;;;;;;5070680;28;20223;-75
2021/05/29 02:38:15;;;;;;;3.13;2.45;;;10.30;99.90;;;;;;5069947;28;20200;-75
2021/05/29 02:40:42;;;;;;;3.30;3.00;;;10.30;99.90;;;;;;5070916;28;20262;-75
2021/05/29 02:43:08;;;;;;;3.50;2.38;;;10.30;99.90;;;;;;5069614;28;20196;-75
2021/05/29 02:45:35;;;;;;;2.78;2.58;;;10.30;99.90;;;;;;5070551;28;20227;-75
2021/05/29 02:48:03;;;;;;;3.28;3.05;;;10.30;99.90;;;;;;5063300;28;20208;-75
2021/05/29 02:50:29;;;;;;;3.13;2.88;;;10.30;99.90;;;;;;5050153;28;20786;-75
2021/05/29 02:52:56;;;;;;;3.35;2.80;;;10.20;99.90;;;;;;5057418;28;20208;-75
2021/05/29 02:55:23;;;;;;;3.60;2.78;;;10.20;99.90;;;;;;5050055;28;20212;-75
2021/05/29 02:57:50;;;;;;;3.45;3.15;;;10.20;99.90;;;;;;5050532;28;20196;-75
2021/05/29 03:00:18;;;;;;;2.60;2.40;;;10.20;99.90;;;;;;5050161;28;20699;-75
2021/05/29 03:02:44;;;;;;;3.15;2.70;;;10.10;99.90;;;;;;5054455;28;20241;-75
2021/05/29 03:05:12;;;;;;;3.28;3.05;;;10.10;99.90;;;;;;5070134;28;20702;-75
2021/05/29 03:07:38;;;;;;;3.35;3.05;;;10.10;99.90;;;;;;5070232;28;20262;-75
2021/05/29 03:10:07;;;;;;;5.32;2.50;;;10.10;99.90;;;;;;5069842;28;20258;-75
2021/05/29 03:12:36;;;;;;;3.15;2.85;;;10.10;99.90;;;;;;5068924;28;20249;-75
2021/05/29 03:15:04;;;;;;;2.85;2.63;;;10.10;99.90;;;;;;5069937;28;20204;-75
2021/05/29 03:17:30;;;;;;;4.70;2.95;;;10.00;99.90;;;;;;5069468;28;20224;-74
2021/05/29 03:19:56;;;;;;;2.90;2.70;;;10.00;99.90;;;;;;5069258;28;20842;-75
2021/05/29 03:22:24;;;;;;;3.67;2.55;;;10.00;99.90;;;;;;5060994;28;20219;-75
2021/05/29 03:24:50;;;;;;;3.80;2.60;;;10.00;99.90;;;;;;5059574;28;20738;-75
2021/05/29 03:27:18;;;;;;;3.10;2.85;;;9.90;99.90;;;;;;5049746;28;20225;-74
2021/05/29 03:29:45;;;;;;;3.30;3.00;;;9.90;99.90;;;;;;5050709;28;20340;-75
2021/05/29 03:32:12;;;;;;;3.55;2.85;;;9.90;99.90;;;;;;5068485;28;20710;-75
2021/05/29 03:34:39;;;;;;;4.60;2.90;;;9.80;99.90;;;;;;5069716;28;20239;-74
2021/05/29 03:37:06;;;;;;;3.10;2.90;;;9.90;99.90;;;;;;5069558;28;20227;-75
2021/05/29 03:39:33;;;;;;;3.60;2.63;;;9.80;99.90;;;;;;5070018;28;20203;-75
2021/05/29 03:41:59;;;;;;;2.90;2.70;;;9.80;99.90;;;;;;5067840;28;20211;-75
2021/05/29 03:44:25;;;;;;;3.25;2.97;;;9.80;99.90;;;;;;5068679;28;20211;-74
2021/05/29 03:46:51;;;;;;;3.67;3.20;;;9.80;99.90;;;;;;5060309;28;20221;-75
2021/05/29 03:49:18;;;;;;;4.47;3.25;;;9.90;99.90;;;;;;5068703;28;20709;-75
2021/05/29 03:51:44;;;;;;;4.22;3.40;;;9.90;99.90;;;;;;5063211;28;20211;-74
2021/05/29 03:54:10;;;;;;;4.22;3.30;;;9.90;99.90;;;;;;5065815;28;20211;-75
2021/05/29 03:56:37;;;;;;;3.30;3.00;;;10.00;99.90;;;;;;5069373;28;20259;-74
2021/05/29 03:59:04;;;;;;;4.07;3.67;;;10.00;99.90;;;;;;5069198;28;20204;-74
2021/05/29 04:01:30;;;;;;;4.28;3.60;;;10.00;99.90;;;;;;5054310;28;20205;-74
2021/05/29 04:03:57;;;;;;;3.88;3.30;;;10.10;99.90;;;;;;5056040;28;20691;-74
2021/05/29 04:06:23;;;;;;;3.80;3.45;;;10.10;99.90;;;;;;5069106;28;20224;-75
2021/05/29 04:08:49;;;;;;;5.85;4.25;;;10.10;99.90;;;;;;5069294;28;20630;-75
2021/05/29 04:11:16;;;;;;;3.60;3.20;;;10.20;99.90;;;;;;5068849;28;20200;-74
2021/05/29 04:13:43;;;;;;;3.42;3.20;;;10.20;99.90;;;;;;5068781;28;20207;-75
2021/05/29 04:16:10;;;;;;;2.92;2.67;;;10.30;99.90;;;;;;5069010;28;20798;-75
2021/05/29 04:18:36;;;;;;;4.43;3.10;;;10.30;99.90;;;;;;5069272;28;20236;-74
2021/05/29 04:21:04;;;;;;;3.55;3.10;;;10.30;99.90;;;;;;5065502;28;20270;-75
2021/05/29 04:23:30;;;;;;;4.03;3.40;;;10.40;99.90;;;;;;5050331;28;20209;-75
2021/05/29 04:25:56;;;;;;;3.53;3.22;;;10.40;99.90;;;;;;5068890;28;20224;-75
2021/05/29 04:28:23;;;;;;;3.30;3.00;;;10.40;99.90;;;;;;5068781;28;20246;-75
2021/05/29 04:30:50;;;;;;;4.68;3.47;;;10.50;99.90;;;;;;5058825;28;20228;-75
2021/05/29 04:33:16;;;;;;;3.60;3.30;;;10.50;99.90;;;;;;5065700;28;20576;-75
2021/05/29 04:35:43;;;;;;;3.33;3.03;;;10.60;99.90;;;;;;5069190;28;20228;-75
2021/05/29 04:38:09;;;;;;;5.70;3.55;;;10.60;99.90;;;;;;5068425;28;20196;-75
2021/05/29 04:40:35;;;;;;;3.35;3.15;;;10.70;99.90;;;;;;5069063;28;20197;-75
2021/05/29 04:43:01;;;;;;;3.58;3.28;;;10.70;99.90;;;;;;5068006;28;20255;-75
2021/05/29 04:45:28;;;;;;;3.70;3.30;;;10.70;99.90;;;;;;5068695;28;20221;-75
2021/05/29 04:47:55;;;;;;;3.90;3.20;;;10.70;99.90;;;;;;5069013;28;20211;-75
2021/05/29 04:50:23;;;;;;;3.80;3.50;;;10.80;99.90;;;;;;5068827;28;20224;-75
2021/05/29 04:52:49;;;;;;;6.35;3.72;;;10.80;99.90;;;;;;5056329;28;20204;-74
2021/05/29 04:55:16;;;;;;;4.22;3.85;;;10.80;99.90;;;;;;5052339;28;20301;-75
2021/05/29 04:57:43;;;;;;;4.00;3.50;;;10.90;99.90;;;;;;5052663;28;20205;-75
2021/05/29 05:00:12;;;;;;;3.85;3.55;;;11.00;99.90;;;;;;5052650;28;20201;-75
2021/05/29 05:02:38;;;;;;;3.78;3.47;;;11.10;99.90;;;;;;5051623;28;20239;-75
2021/05/29 05:05:07;;;;;;;4.05;3.72;;;11.10;99.90;;;;;;5052683;28;20327;-75
2021/05/29 05:07:34;;;;;;;4.20;3.22;;;11.20;99.90;;;;;;5052338;28;20208;-75
2021/05/29 05:10:00;;;;;;;3.83;3.42;;;11.30;99.90;;;;;;5052315;28;20719;-75
2021/05/29 05:12:26;;;;;;;3.63;3.28;;;11.40;99.90;;;;;;5055330;28;20204;-75
2021/05/29 05:14:53;;;;;;;4.03;3.65;;;11.50;99.90;;;;;;5068599;28;20201;-75
2021/05/29 05:17:19;;;;;;;4.20;3.83;;;11.60;99.90;;;;;;5051921;28;20256;-75
2021/05/29 05:19:45;;;;;;;4.78;3.22;;;11.70;99.90;;;;;;5051851;28;20577;-75
2021/05/29 05:22:12;;;;;;;4.00;3.33;;;11.80;99.90;;;;;;5060750;28;20201;-75
2021/05/29 05:24:39;;;;;;;7.93;3.15;;;11.90;99.90;;;;;;5052184;28;20668;-75
2021/05/29 05:27:05;;;;;;;2.95;2.75;;;11.90;99.90;;;;;;5052018;28;20229;-75
2021/05/29 05:29:32;;;;;;;6.63;3.10;;;11.90;99.90;;;;;;5051299;28;20224;-75
2021/05/29 05:31:58;;;;;;;4.93;2.77;;;12.00;99.90;;;;;;5066816;28;20204;-75
2021/05/29 05:34:24;;;;;;;3.00;2.80;;;12.10;99.90;;;;;;5072132;28;20462;-75
2021/05/29 05:36:50;;;;;;;2.80;2.30;;;12.20;99.90;;;;;;5056913;28;20916;-75
2021/05/29 05:39:17;;;;;;;4.90;3.90;;;12.30;99.90;;;;;;5051579;28;20447;-72
2021/05/29 05:41:43;;;;;;;8.83;5.97;;;12.30;99.90;;;;;;5050816;28;20505;-72
2021/05/29 05:44:10;;;;;;;7.67;2.90;;;12.40;99.90;;;;;;5067975;28;20470;-72
2021/05/29 05:46:36;;;;;;;3.97;2.30;;;12.60;99.90;;;;;;5071774;28;20543;-72
2021/05/29 05:49:03;;;;;;;2.23;2.03;;;12.70;99.90;;;;;;5071332;28;20470;-72
2021/05/29 05:51:32;;;;;;;2.30;2.10;;;12.70;99.90;;;;;;5069010;28;20502;-73
2021/05/29 05:53:58;;;;;;;2.20;2.00;;;12.80;99.90;;;;;;5051497;28;20468;-73
2021/05/29 05:56:28;;;;;;;2.47;2.27;;;12.90;99.90;;;;;;5051424;28;20506;-73
2021/05/29 05:58:56;;;;;;;2.37;2.17;;;13.00;99.90;;;;;;5061406;28;20481;-73
2021/05/29 06:01:23;;;;;;;2.27;2.07;;;12.90;99.90;;;;;;5067952;28;20474;-73
2021/05/29 06:03:49;;;;;;;4.60;2.40;;;13.00;99.90;;;;;;5070309;28;20525;-73
2021/05/29 06:06:15;;;;;;;2.47;2.27;;;13.00;99.90;;;;;;5070976;28;20486;-73
2021/05/29 06:08:42;;;;;;;2.30;2.10;;;13.10;99.90;;;;;;5057661;28;20463;-73
2021/05/29 06:11:08;;;;;;;2.67;2.30;;;13.10;99.90;;;;;;5050550;28;21024;-73
2021/05/29 06:21:47;;;;;;;3.00;2.50;;;13.30;99.90;;;;;;5057669;28;20485;-75
2021/05/29 06:24:15;;;;;;;2.73;2.50;;;13.40;99.90;;;;;;5050679;28;20459;-74
2021/05/29 06:26:41;;;;;;;3.30;2.30;;;13.40;99.90;;;;;;5053794;28;20494;-75
2021/05/29 06:29:08;;;;;;;2.57;2.37;;;13.50;99.90;;;;;;5070199;28;20489;-74
2021/05/29 06:31:35;;;;;;;2.67;2.47;;;13.60;99.90;;;;;;5057599;28;20465;-75
2021/05/29 06:34:01;;;;;;;4.33;2.57;;;13.70;99.90;;;;;;5050915;28;20467;-74
2021/05/29 06:36:29;;;;;;;3.00;2.43;;;13.70;99.90;;;;;;5050571;28;20479;-77
2021/05/29 06:38:55;;;;;;;2.93;2.50;;;13.80;99.90;;;;;;5050631;28;20493;-75
2021/05/29 06:41:23;;;;;;;2.30;2.10;;;13.90;99.90;;;;;;5049444;28;20478;-75
2021/05/29 06:43:49;;;;;;;2.40;2.20;;;14.00;99.90;;;;;;5050685;28;20843;-76
2021/05/29 06:46:16;;;;;;;2.30;2.10;;;14.10;99.90;;;;;;5049879;28;20483;-75
2021/05/29 06:48:42;;;;;;;2.60;2.40;;;14.10;99.90;;;;;;5049862;28;20483;-75
2021/05/29 06:51:11;;;;;;;2.30;2.00;;;14.20;99.90;;;;;;5049706;28;20483;-76
2021/05/29 06:53:42;;;;;;;2.63;2.43;;;14.30;99.90;;;;;;5050150;28;20463;-75
2021/05/29 06:58:53;;;;;;;2.77;2.53;;;14.40;99.90;;;;;;5050004;28;20450;-75
2021/05/29 07:01:23;;;;;;;2.50;2.30;;;14.50;99.90;;;;;;5049354;28;20471;-75
2021/05/29 07:03:51;;;;;;;2.67;2.43;;;14.50;99.90;;;;;;5050397;28;21009;-76
2021/05/29 07:06:18;;;;;;;3.37;2.27;;;14.60;99.90;;;;;;5050108;28;20487;-75
2021/05/29 07:08:45;;;;;;;3.10;2.40;;;14.60;99.90;;;;;;5050201;28;20460;-75
2021/05/29 07:11:11;;;;;;;2.80;2.23;;;14.70;99.90;;;;;;5049634;28;20483;-75
2021/05/29 07:13:37;;;;;;;2.83;2.63;;;14.80;99.90;;;;;;5069860;28;20462;-75
2021/05/29 07:16:04;;;;;;;3.40;2.53;;;14.80;99.90;;;;;;5053154;28;20503;-75
2021/05/29 07:18:34;;;;;;;2.30;2.10;;;14.90;99.90;;;;;;5049830;28;20828;-75
2021/05/29 07:21:02;;;;;;;2.63;2.30;;;15.00;99.90;;;;;;5057194;28;20945;-75
2021/05/29 07:23:28;;;;;;;2.40;2.10;;;15.00;99.90;;;;;;5068560;28;21034;-75
2021/05/29 07:25:55;;;;;;;2.57;2.37;;;15.10;99.90;;;;;;5059883;28;20994;-75
2021/05/29 07:28:21;;;;;;;2.87;2.20;;;15.20;99.90;;;;;;5049625;28;20887;-75
2021/05/29 07:30:49;;;;;;;2.60;2.30;;;15.20;99.90;;;;;;5059833;28;20494;-76
2021/05/29 07:33:16;;;;;;;2.40;1.80;;;15.30;99.90;;;;;;5068582;28;20462;-75
2021/05/29 07:35:43;;;;;;;3.93;2.63;;;15.40;99.90;;;;;;5066911;28;20486;-75
2021/05/29 07:38:09;;;;;;;2.43;2.23;;;15.50;99.90;;;;;;5052922;28;20477;-77
2021/05/29 07:40:37;;;;;;;3.20;2.50;;;15.50;99.90;;;;;;5070011;28;20458;-76
2021/05/29 07:43:04;;;;;;;2.90;2.40;;;15.50;99.90;;;;;;5051936;28;20467;-76
2021/05/29 07:45:30;;;;;;;3.60;3.03;;;15.60;99.90;;;;;;5048906;28;20484;-75
2021/05/29 07:47:56;;;;;;;4.07;2.40;;;15.60;99.90;;;;;;5049631;28;20456;-75
2021/05/29 07:50:23;;;;;;;2.03;1.83;;;15.70;99.90;;;;;;5049448;28;21049;-77
2021/05/29 07:52:50;;;;;;;2.30;2.10;;;15.70;99.90;;;;;;5065234;28;20459;-77
2021/05/29 07:55:17;;;;;;;1.83;1.73;;;15.70;99.90;;;;;;5069182;28;20548;-76
2021/05/29 07:57:43;;;;;;;2.47;2.13;;;15.80;99.90;;;;;;5069427;28;20497;-77
2021/05/29 08:00:13;;;;;;;2.07;1.70;;;15.80;99.90;;;;;;5069225;28;20458;-75
2021/05/29 08:02:40;;;;;;;2.60;2.27;;;15.90;99.90;;;;;;5054717;28;20495;-75
2021/05/29 08:05:13;;;;;;;2.23;2.03;;;16.00;99.90;;;;;;5049378;28;20509;-74
2021/05/29 08:07:39;;;;;;;2.23;2.03;;;16.10;99.90;;;;;;5057871;28;20463;-74
2021/05/29 08:10:08;;;;;;;2.63;2.40;;;16.20;99.90;;;;;;5049378;28;20871;-77
2021/05/29 08:12:34;;;;;;;5.23;1.80;;;16.30;99.90;;;;;;5048494;28;20470;-74
2021/05/29 08:15:01;;;;;;;2.00;1.90;;;16.40;99.90;;;;;;5049252;28;20547;-74
2021/05/29 08:17:27;;;;;;;2.20;2.00;;;16.50;99.10;;;;;;5048993;28;20490;-77
2021/05/29 08:19:53;;;;;;;3.80;2.10;;;16.60;98.60;;;;;;5048527;28;20463;-77
2021/05/29 08:22:20;;;;;;;7.07;2.30;;;16.60;98.60;;;;;;5062118;28;20462;-76
2021/05/29 08:24:46;;;;;;;2.30;1.83;;;16.70;99.80;;;;;;5069353;28;20475;-76
2021/05/29 08:27:13;;;;;;;1.50;1.40;;;16.80;99.80;;;;;;5069926;28;20474;-75
2021/05/29 08:29:39;;;;;;;2.50;2.30;;;16.80;97.50;;;;;;5058212;28;20561;-75
2021/05/29 08:32:06;;;;;;;3.77;1.83;;;16.90;98.80;;;;;;5066872;28;20977;-74
2021/05/29 08:34:32;;;;;;;3.17;1.90;;;17.00;99.60;;;;;;5073203;28;20469;-74
2021/05/29 08:36:58;;;;;;;2.07;1.93;;;17.20;99.40;;;;;;5057066;28;20483;-75
2021/05/29 08:39:24;;;;;;;2.30;1.93;;;17.30;99.00;;;;;;5052546;28;20474;-76
2021/05/29 08:41:51;;;;;;;2.23;1.90;;;17.40;98.90;;;;;;5052969;28;20467;-77
2021/05/29 08:44:19;;;;;;;2.77;1.90;;;17.50;99.40;;;;;;5052567;28;20955;-76
2021/05/29 08:46:45;;;;;;;1.87;1.77;;;17.70;98.30;;;;;;5052966;28;20487;-77
2021/05/29 08:49:11;;;;;;;3.03;1.83;;;17.80;97.60;;;;;;5052292;28;20459;-76
2021/05/29 08:51:38;;;;;;;1.83;1.73;;;17.80;97.30;;;;;;5055644;28;20458;-75
2021/05/29 08:54:04;;;;;;;2.40;2.20;;;17.90;98.00;;;;;;5054759;28;20475;-76
2021/05/29 08:56:30;;;;;;;2.13;1.93;;;18.00;97.60;;;;;;5052645;28;20482;-76
2021/05/29 08:58:59;;;;;;;2.23;2.03;;;18.20;97.30;;;;;;5071226;28;20992;-76
2021/05/29 09:01:26;;;;;;;2.70;1.73;;;18.30;95.30;;;;;;5070686;28;20458;-73
2021/05/29 09:03:56;;;;;;;3.30;1.97;;;18.20;94.90;;;;;;5052292;28;20466;-76
2021/05/29 09:06:37;;;;;;;8.30;2.00;;;18.00;96.20;;;;;;5052528;28;20483;-77
2021/05/29 09:09:06;;;;;;;2.03;1.93;;;18.00;95.90;;;;;;5064016;28;20472;-76
2021/05/29 09:11:43;;;;;;;9.03;5.17;;;17.80;96.00;;;;;;5069849;28;20470;-75
2021/05/29 09:14:39;;;;;;;3.70;2.87;;;17.70;95.30;;;;;;5066992;28;20508;-76
2021/05/29 09:17:18;;;;;;;2.43;2.20;;;17.90;97.80;;;;;;5052472;28;20498;-76
2021/05/29 09:20:06;;;;;;;3.13;2.20;;;18.20;98.00;;;;;;5061417;28;20469;-75
2021/05/29 09:22:37;;;;;;;5.23;2.10;;;18.50;96.20;;;;;;5046623;28;20463;-74
2021/05/29 09:25:08;;;;;;;3.20;2.17;;;18.60;96.40;;;;;;5057491;28;20971;-74
2021/05/29 09:27:36;;;;;;;2.40;2.20;;;18.70;97.00;;;;;;5053760;28;20456;-75
2021/05/29 09:30:05;;;;;;;3.83;2.27;;;18.80;97.60;;;;;;5059088;28;20920;-75
2021/05/29 09:32:35;;;;;;;4.13;2.40;;;19.00;97.40;;;;;;5053825;28;20455;-75
2021/05/29 09:35:08;;;;;;;3.00;1.90;;;19.10;96.60;;;;;;5057902;28;20454;-74
2021/05/29 09:37:35;;;;;;;2.17;1.97;;;19.20;96.10;;;;;;5061549;28;20466;-73
2021/05/29 09:40:04;;;;;;;2.20;2.00;;;19.30;96.30;;;;;;5060351;28;20539;-74
2021/05/29 09:42:33;;;;;;;2.03;1.90;;;19.50;95.40;;;;;;5060243;28;20473;-74
2021/05/29 09:45:17;;;;;;;2.80;2.10;;;19.50;94.10;;;;;;5059080;28;20451;-74
2021/05/29 09:48:06;;;;;;;1.80;1.67;;;19.60;92.50;;;;;;5057320;28;20455;-74
2021/05/29 09:50:34;;;;;;;1.90;1.40;;;19.50;92.40;;;;;;5058838;28;20836;-73
2021/05/29 09:53:00;;;;;;;2.17;1.97;;;19.40;92.40;;;;;;5057631;28;20883;-75
2021/05/29 09:55:37;;;;;;;4.23;1.70;;;19.40;93.10;;;;;;5058369;28;20458;-73
2021/05/29 09:58:03;;;;;;;3.43;2.50;;;19.50;93.00;;;;;;5059014;28;20458;-73
2021/05/29 10:00:39;;;;;;;4.73;2.20;;;19.50;93.20;;;;;;5055681;28;20463;-75
2021/05/29 10:03:07;;;;;;;2.33;1.93;;;19.70;92.80;;;;;;5052798;28;20470;-74
2021/05/29 10:05:36;;;;;;;2.70;2.23;;;19.90;93.80;;;;;;5060864;28;20478;-75
2021/05/29 10:08:02;;;;;;;2.53;2.33;;;20.10;93.70;;;;;;5056806;28;20466;-75
2021/05/29 10:10:29;;;;;;;2.47;2.07;;;20.30;93.90;;;;;;5051385;28;20491;-75
2021/05/29 10:12:57;;;;;;;3.20;2.27;;;20.20;93.50;;;;;;5065347;28;20478;-75
2021/05/29 10:15:24;;;;;;;2.80;2.20;;;20.00;92.80;;;;;;5050759;28;20945;-75
2021/05/29 10:17:51;;;;;;;2.63;1.97;;;19.70;92.70;;;;;;5051027;28;20459;-75
2021/05/29 10:20:18;;;;;;;3.20;2.53;;;19.50;92.70;;;;;;5051267;28;20460;-75
2021/05/29 10:22:45;;;;;;;3.53;2.00;;;19.60;94.10;;;;;;5070107;28;20970;-74
2021/05/29 10:25:14;;;;;;;2.77;2.50;;;19.90;93.60;;;;;;5070724;28;20465;-76
2021/05/29 10:27:43;;;;;;;2.33;2.13;;;20.30;93.60;;;;;;5059460;28;20468;-74
2021/05/29 10:30:11;;;;;;;2.10;1.90;;;20.50;93.90;;;;;;5047650;28;21026;-75
2021/05/29 10:32:38;;;;;;;2.43;2.13;;;20.70;94.70;;;;;;5049637;28;20463;-73
2021/05/29 10:35:06;;;;;;;2.43;2.00;;;20.60;92.60;;;;;;5050149;28;20554;-74
2021/05/29 10:37:36;;;;;;;2.93;2.40;;;20.30;92.50;;;;;;5050760;28;20468;-74
2021/05/29 10:40:23;;;;;;;3.10;2.50;;;20.20;94.30;;;;;;5050270;28;20495;-74
2021/05/29 10:43:06;;;;;;;2.67;2.47;;;20.00;94.10;;;;;;5044872;28;20487;-74
2021/05/29 10:45:33;;;;;;;2.37;2.17;;;20.00;94.50;;;;;;5045648;28;20471;-74
2021/05/29 10:48:08;;;;;;;2.40;2.20;;;20.20;94.50;;;;;;5045682;28;20517;-75
2021/05/29 10:50:55;;;;;;;2.50;2.30;;;20.50;95.30;;;;;;5064552;28;20516;-73
2021/05/29 10:53:41;;;;;;;2.40;2.20;;;20.60;93.40;;;;;;5050740;28;20920;-74
2021/05/29 10:56:31;;;;;;;5.10;2.17;;;20.20;93.00;;;;;;5052280;28;20475;-73
2021/05/29 10:59:04;;;;;;;2.37;2.10;;;20.30;92.80;;;;;;5051277;28;20832;-75
2021/05/29 11:02:03;;;;;;;2.37;1.90;;;20.50;92.20;;;;;;5044051;28;20443;-74
2021/05/29 11:04:30;;;;;;;2.10;1.90;;;20.70;93.00;;;;;;5058805;28;20533;-75
2021/05/29 11:06:58;;;;;;;2.57;1.97;;;21.00;93.70;;;;;;5066018;28;21163;-74
2021/05/29 11:09:48;;;;;;;2.23;2.00;;;21.30;93.10;;;;;;5065273;28;20489;-74
2021/05/29 11:12:15;;;;;;;2.03;1.70;;;21.40;90.90;;;;;;5062874;28;20467;-74
2021/05/29 11:14:54;;;;;;;1.70;1.40;;;21.30;90.10;;;;;;5054844;28;20958;-73
2021/05/29 11:17:21;;;;;;;2.17;1.90;;;21.10;91.00;;;;;;5052410;28;20487;-74
2021/05/29 11:20:13;;;;;;;1.90;1.70;;;20.70;90.10;;;;;;5051748;28;21104;-74
2021/05/29 11:22:41;;;;;;;1.57;1.47;;;20.80;91.10;;;;;;5058554;28;20566;-73
2021/05/29 11:25:12;;;;;;;1.80;1.60;;;21.10;89.70;;;;;;5057845;28;20463;-74
2021/05/29 11:27:40;;;;;;;2.93;1.80;;;21.40;90.90;;;;;;5043730;28;20467;-74
2021/05/29 11:30:09;;;;;;;1.30;1.20;;;21.50;90.40;;;;;;5049954;28;21087;-74
2021/05/29 11:32:48;;;;;;;1.90;1.70;;;21.70;89.50;;;;;;5064533;28;20561;-76
2021/05/29 11:35:26;;;;;;;1.40;1.30;;;21.90;84.40;;;;;;5047961;28;20521;-73
2021/05/29 11:38:05;;;;;;;2.33;1.63;;;21.90;85.20;;;;;;5045489;28;20568;-75
2021/05/29 11:40:55;;;;;;;1.20;1.10;;;22.00;85.90;;;;;;5055947;28;20485;-75
2021/05/29 11:43:32;;;;;;;1.30;1.20;;;21.90;85.10;;;;;;5063941;28;20868;-74
2021/05/29 11:46:00;;;;;;;2.30;1.40;;;22.10;82.30;;;;;;5064680;28;20490;-72
2021/05/29 11:48:30;;;;;;;2.43;1.30;;;22.10;80.50;;;;;;5064374;28;20459;-74
2021/05/29 11:51:10;;;;;;;2.10;1.80;;;22.30;85.50;;;;;;5063818;28;20466;-73
2021/05/29 11:53:37;;;;;;;1.63;1.50;;;22.30;87.70;;;;;;5044746;28;20498;-73
2021/05/29 11:56:05;;;;;;;2.07;1.40;;;22.50;83.30;;;;;;5044758;28;20515;-73
2021/05/29 11:58:43;;;;;;;1.80;1.70;;;22.50;83.40;;;;;;5044633;28;20463;-73
2021/05/29 12:01:09;;;;;;;1.60;1.50;;;22.40;80.60;;;;;;5053951;28;20970;-73
2021/05/29 12:03:41;;;;;;;1.50;1.33;;;22.40;84.30;;;;;;5063281;28;20489;-73
2021/05/29 12:06:07;;;;;;;2.90;1.23;;;22.70;83.90;;;;;;5065173;28;20486;-73
2021/05/29 12:08:52;;;;;;;1.50;1.30;;;22.80;81.20;;;;;;5064260;28;20541;-73
2021/05/29 12:11:21;;;;;;;2.10;1.33;;;22.90;86.50;;;;;;5050859;28;20544;-73
2021/05/29 12:13:56;;;;;;;2.27;1.50;;;23.10;86.30;;;;;;5044128;28;20459;-73
2021/05/29 12:16:30;;;;;;;1.83;1.63;;;23.00;84.70;;;;;;5043954;28;20489;-73
2021/05/29 12:18:57;;;;;;;1.87;1.40;;;23.20;83.90;;;;;;5044321;28;20465;-73
2021/05/29 12:21:23;;;;;;;1.70;1.40;;;23.30;83.60;;;;;;5050159;28;20466;-73
2021/05/29 12:23:55;;;;;;;2.50;1.60;;;23.30;80.20;;;;;;5064978;28;20469;-73
2021/05/29 12:26:24;;;;;;;2.50;1.10;;;23.20;81.70;;;;;;5063897;28;20569;-73
2021/05/29 12:28:50;;;;;;;2.10;1.43;;;23.30;78.90;;;;;;5064399;28;20458;-73
2021/05/29 12:31:18;;;;;;;1.27;1.17;;;23.00;80.40;;;;;;5054940;28;20625;-73
2021/05/29 12:33:45;;;;;;;1.43;1.30;;;23.00;82.50;;;;;;5043698;28;20467;-73
2021/05/29 12:36:14;;;;;;;1.30;1.20;;;23.10;79.10;;;;;;5044154;28;20529;-73
2021/05/29 12:38:58;;;;;;;1.80;1.53;;;23.30;80.60;;;;;;5043794;28;20466;-73
2021/05/29 12:41:34;;;;;;;1.20;1.10;;;23.00;75.00;;;;;;5041800;28;20520;-73
2021/05/29 12:44:04;;;;;;;1.33;1.10;;;22.80;76.30;;;;;;5048892;28;20515;-73
2021/05/29 12:46:31;;;;;;;1.40;1.30;;;22.40;75.00;;;;;;5064014;28;20698;-73
2021/05/29 12:49:04;;;;;;;14.03;4.93;;;22.00;75.70;;;;;;5063841;28;20455;-73
2021/05/29 12:51:42;;;;;;;29.27;10.17;;;21.70;82.20;;;;;;5062253;28;20496;-73
2021/05/29 12:54:09;;;;;;;16.43;6.60;;;21.90;86.00;;;;;;5064859;28;20473;-72
2021/05/29 12:56:36;;;;;;;3.93;2.40;;;22.10;81.50;;;;;;5063741;28;20561;-73
2021/05/29 12:59:06;;;;;;;1.63;1.53;;;22.30;80.60;;;;;;5063859;28;20466;-75
2021/05/29 13:01:45;;;;;;;3.10;1.67;;;22.70;82.10;;;;;;5042416;28;20455;-74
2021/05/29 13:09:54;;;;;;;1.93;1.40;;;23.20;82.00;;;;;;5045526;28;20505;-75
2021/05/29 13:12:22;;;;;;;1.30;1.20;;;23.20;80.30;;;;;;5052150;28;20486;-75